sensor_id;sensor_type;location;lat;lon;timestamp;P1;durP1;ratioP1;P2;durP2;ratioP2
313;SDS011;143;51.634;7.112;2023-02-28T00:01:23;8.95;;;4.90;;
313;SDS011;143;51.634;7.112;2023-02-28T00:03:49;8.50;;;5.00;;
313;SDS011;143;51.634;7.112;2023-02-28T00:06:15;7.10;;;4.63;;
313;SDS011;143;51.634;7.112;2023-02-28T00:08:41;10.23;;;4.90;;
313;SDS011;143;51.634;7.112;2023-02-28T00:11:08;6.33;;;4.30;;
313;SDS011;143;51.634;7.112;2023-02-28T00:13:36;9.13;;;4.13;;
313;SDS011;143;51.634;7.112;2023-02-28T00:16:06;6.53;;;4.68;;
313;SDS011;143;51.634;7.112;2023-02-28T00:18:34;8.65;;;4.88;;
313;SDS011;143;51.634;7.112;2023-02-28T00:21:00;8.82;;;4.45;;
313;SDS011;143;51.634;7.112;2023-02-28T00:23:26;6.67;;;4.23;;
313;SDS011;143;51.634;7.112;2023-02-28T00:25:52;7.40;;;4.20;;
313;SDS011;143;51.634;7.112;2023-02-28T00:28:18;8.27;;;4.43;;
313;SDS011;143;51.634;7.112;2023-02-28T00:30:44;6.40;;;4.00;;
313;SDS011;143;51.634;7.112;2023-02-28T00:33:10;8.77;;;4.50;;
313;SDS011;143;51.634;7.112;2023-02-28T00:35:35;7.82;;;4.05;;
313;SDS011;143;51.634;7.112;2023-02-28T00:38:01;6.43;;;4.03;;
313;SDS011;143;51.634;7.112;2023-02-28T00:40:27;10.48;;;4.70;;
313;SDS011;143;51.634;7.112;2023-02-28T00:42:53;6.57;;;4.10;;
313;SDS011;143;51.634;7.112;2023-02-28T00:45:19;6.43;;;3.80;;
313;SDS011;143;51.634;7.112;2023-02-28T00:47:44;9.50;;;4.03;;
313;SDS011;143;51.634;7.112;2023-02-28T00:50:11;6.65;;;4.57;;
313;SDS011;143;51.634;7.112;2023-02-28T00:52:37;6.22;;;4.00;;
313;SDS011;143;51.634;7.112;2023-02-28T00:55:03;6.00;;;4.03;;
313;SDS011;143;51.634;7.112;2023-02-28T00:57:29;6.25;;;3.78;;
313;SDS011;143;51.634;7.112;2023-02-28T00:59:55;6.30;;;4.20;;
313;SDS011;143;51.634;7.112;2023-02-28T01:02:22;10.13;;;4.03;;
313;SDS011;143;51.634;7.112;2023-02-28T01:04:48;5.07;;;3.35;;
313;SDS011;143;51.634;7.112;2023-02-28T01:07:14;6.20;;;4.13;;
313;SDS011;143;51.634;7.112;2023-02-28T01:09:40;4.50;;;3.00;;
313;SDS011;143;51.634;7.112;2023-02-28T01:12:06;8.35;;;3.65;;
313;SDS011;143;51.634;7.112;2023-02-28T01:14:33;8.77;;;3.45;;
313;SDS011;143;51.634;7.112;2023-02-28T01:17:00;8.20;;;3.03;;
313;SDS011;143;51.634;7.112;2023-02-28T01:19:26;6.90;;;3.75;;
313;SDS011;143;51.634;7.112;2023-02-28T01:21:51;4.60;;;2.85;;
313;SDS011;143;51.634;7.112;2023-02-28T01:24:17;7.37;;;2.70;;
313;SDS011;143;51.634;7.112;2023-02-28T01:26:43;6.60;;;3.35;;
313;SDS011;143;51.634;7.112;2023-02-28T01:29:09;4.27;;;2.90;;
313;SDS011;143;51.634;7.112;2023-02-28T01:31:35;4.47;;;2.70;;
313;SDS011;143;51.634;7.112;2023-02-28T01:34:01;5.88;;;3.10;;
313;SDS011;143;51.634;7.112;2023-02-28T01:36:27;9.55;;;4.35;;
313;SDS011;143;51.634;7.112;2023-02-28T01:38:53;7.65;;;3.53;;
313;SDS011;143;51.634;7.112;2023-02-28T01:41:20;4.83;;;2.57;;
313;SDS011;143;51.634;7.112;2023-02-28T01:43:54;6.47;;;2.95;;
313;SDS011;143;51.634;7.112;2023-02-28T01:46:25;5.55;;;2.70;;
313;SDS011;143;51.634;7.112;2023-02-28T01:48:51;5.72;;;2.95;;
313;SDS011;143;51.634;7.112;2023-02-28T01:51:48;6.68;;;2.67;;
313;SDS011;143;51.634;7.112;2023-02-28T01:54:18;4.85;;;2.58;;
313;SDS011;143;51.634;7.112;2023-02-28T01:56:55;3.92;;;2.33;;
313;SDS011;143;51.634;7.112;2023-02-28T01:59:29;3.70;;;2.70;;
313;SDS011;143;51.634;7.112;2023-02-28T02:01:59;3.85;;;2.75;;
313;SDS011;143;51.634;7.112;2023-02-28T02:04:27;7.97;;;3.50;;
313;SDS011;143;51.634;7.112;2023-02-28T02:06:59;5.30;;;3.60;;
313;SDS011;143;51.634;7.112;2023-02-28T02:09:25;6.72;;;4.15;;
313;SDS011;143;51.634;7.112;2023-02-28T02:11:50;5.00;;;3.67;;
313;SDS011;143;51.634;7.112;2023-02-28T02:28:49;7.28;;;4.25;;
313;SDS011;143;51.634;7.112;2023-02-28T02:37:01;7.15;;;3.55;;
313;SDS011;143;51.634;7.112;2023-02-28T02:39:53;8.95;;;3.65;;
313;SDS011;143;51.634;7.112;2023-02-28T02:42:21;6.13;;;3.67;;
313;SDS011;143;51.634;7.112;2023-02-28T02:44:58;7.78;;;3.13;;
313;SDS011;143;51.634;7.112;2023-02-28T02:47:37;3.95;;;3.03;;
313;SDS011;143;51.634;7.112;2023-02-28T02:50:06;4.30;;;2.80;;
313;SDS011;143;51.634;7.112;2023-02-28T02:52:38;5.50;;;3.40;;
313;SDS011;143;51.634;7.112;2023-02-28T02:55:09;4.22;;;2.83;;
313;SDS011;143;51.634;7.112;2023-02-28T02:57:40;4.65;;;2.70;;
313;SDS011;143;51.634;7.112;2023-02-28T03:00:12;5.70;;;3.00;;
313;SDS011;143;51.634;7.112;2023-02-28T03:02:40;4.47;;;2.55;;
313;SDS011;143;51.634;7.112;2023-02-28T03:05:12;4.07;;;2.50;;
313;SDS011;143;51.634;7.112;2023-02-28T03:07:43;5.45;;;2.45;;
313;SDS011;143;51.634;7.112;2023-02-28T03:10:32;3.43;;;2.53;;
313;SDS011;143;51.634;7.112;2023-02-28T03:13:09;4.00;;;2.22;;
313;SDS011;143;51.634;7.112;2023-02-28T03:18:32;4.03;;;2.50;;
313;SDS011;143;51.634;7.112;2023-02-28T03:27:05;6.18;;;2.55;;
313;SDS011;143;51.634;7.112;2023-02-28T03:29:39;6.22;;;2.70;;
313;SDS011;143;51.634;7.112;2023-02-28T03:32:21;5.90;;;3.70;;
313;SDS011;143;51.634;7.112;2023-02-28T03:35:07;5.40;;;2.88;;
313;SDS011;143;51.634;7.112;2023-02-28T03:37:38;4.95;;;3.22;;
313;SDS011;143;51.634;7.112;2023-02-28T03:40:08;5.18;;;2.80;;
313;SDS011;143;51.634;7.112;2023-02-28T03:42:39;3.13;;;2.50;;
313;SDS011;143;51.634;7.112;2023-02-28T03:45:12;3.15;;;2.42;;
313;SDS011;143;51.634;7.112;2023-02-28T03:47:46;5.35;;;2.45;;
313;SDS011;143;51.634;7.112;2023-02-28T03:50:22;4.65;;;3.00;;
313;SDS011;143;51.634;7.112;2023-02-28T03:55:18;4.77;;;3.43;;
313;SDS011;143;51.634;7.112;2023-02-28T03:57:50;10.02;;;2.58;;
313;SDS011;143;51.634;7.112;2023-02-28T04:00:37;5.20;;;2.78;;
313;SDS011;143;51.634;7.112;2023-02-28T04:03:08;10.70;;;3.10;;
313;SDS011;143;51.634;7.112;2023-02-28T04:05:39;3.97;;;2.60;;
313;SDS011;143;51.634;7.112;2023-02-28T04:08:16;4.45;;;3.10;;
313;SDS011;143;51.634;7.112;2023-02-28T04:10:43;3.90;;;2.80;;
313;SDS011;143;51.634;7.112;2023-02-28T04:13:14;9.65;;;3.40;;
313;SDS011;143;51.634;7.112;2023-02-28T04:15:39;3.67;;;2.53;;
313;SDS011;143;51.634;7.112;2023-02-28T04:18:06;2.35;;;2.25;;
313;SDS011;143;51.634;7.112;2023-02-28T04:20:31;3.93;;;2.60;;
313;SDS011;143;51.634;7.112;2023-02-28T04:22:57;5.97;;;2.60;;
313;SDS011;143;51.634;7.112;2023-02-28T04:25:22;5.30;;;2.30;;
313;SDS011;143;51.634;7.112;2023-02-28T04:27:48;5.40;;;2.60;;
313;SDS011;143;51.634;7.112;2023-02-28T04:30:14;4.40;;;3.00;;
313;SDS011;143;51.634;7.112;2023-02-28T04:32:40;3.90;;;2.50;;
313;SDS011;143;51.634;7.112;2023-02-28T04:35:06;5.90;;;3.13;;
313;SDS011;143;51.634;7.112;2023-02-28T04:37:32;3.53;;;2.88;;
313;SDS011;143;51.634;7.112;2023-02-28T04:39:59;5.80;;;3.90;;
313;SDS011;143;51.634;7.112;2023-02-28T04:42:26;4.22;;;2.67;;
313;SDS011;143;51.634;7.112;2023-02-28T04:44:51;4.83;;;2.97;;
313;SDS011;143;51.634;7.112;2023-02-28T04:47:17;6.73;;;2.90;;
313;SDS011;143;51.634;7.112;2023-02-28T04:49:43;5.00;;;2.80;;
313;SDS011;143;51.634;7.112;2023-02-28T04:52:08;4.80;;;2.63;;
313;SDS011;143;51.634;7.112;2023-02-28T04:54:35;5.90;;;3.08;;
313;SDS011;143;51.634;7.112;2023-02-28T04:57:01;20.00;;;3.00;;
313;SDS011;143;51.634;7.112;2023-02-28T04:59:26;9.60;;;3.70;;
313;SDS011;143;51.634;7.112;2023-02-28T05:01:52;6.73;;;3.30;;
313;SDS011;143;51.634;7.112;2023-02-28T05:04:18;5.20;;;3.23;;
313;SDS011;143;51.634;7.112;2023-02-28T05:06:43;4.10;;;2.97;;
313;SDS011;143;51.634;7.112;2023-02-28T05:09:09;4.45;;;3.30;;
313;SDS011;143;51.634;7.112;2023-02-28T05:11:38;7.13;;;3.50;;
313;SDS011;143;51.634;7.112;2023-02-28T05:14:06;5.30;;;3.03;;
313;SDS011;143;51.634;7.112;2023-02-28T05:16:35;4.63;;;3.17;;
313;SDS011;143;51.634;7.112;2023-02-28T05:19:01;3.97;;;2.93;;
313;SDS011;143;51.634;7.112;2023-02-28T05:24:04;5.20;;;3.15;;
313;SDS011;143;51.634;7.112;2023-02-28T05:26:40;5.18;;;3.03;;
313;SDS011;143;51.634;7.112;2023-02-28T05:29:07;10.82;;;4.25;;
313;SDS011;143;51.634;7.112;2023-02-28T05:31:34;11.18;;;3.75;;
313;SDS011;143;51.634;7.112;2023-02-28T05:34:00;4.38;;;3.28;;
313;SDS011;143;51.634;7.112;2023-02-28T05:36:26;4.85;;;3.20;;
313;SDS011;143;51.634;7.112;2023-02-28T05:38:51;8.33;;;3.33;;
313;SDS011;143;51.634;7.112;2023-02-28T05:41:17;7.83;;;3.60;;
313;SDS011;143;51.634;7.112;2023-02-28T05:43:44;5.13;;;3.78;;
313;SDS011;143;51.634;7.112;2023-02-28T05:46:11;7.32;;;3.83;;
313;SDS011;143;51.634;7.112;2023-02-28T05:48:37;5.28;;;3.58;;
313;SDS011;143;51.634;7.112;2023-02-28T05:51:05;4.57;;;3.63;;
313;SDS011;143;51.634;7.112;2023-02-28T05:53:32;7.22;;;3.80;;
313;SDS011;143;51.634;7.112;2023-02-28T05:55:58;6.72;;;3.70;;
313;SDS011;143;51.634;7.112;2023-02-28T05:58:24;4.72;;;3.28;;
313;SDS011;143;51.634;7.112;2023-02-28T06:00:56;8.15;;;3.45;;
313;SDS011;143;51.634;7.112;2023-02-28T06:03:22;8.10;;;4.05;;
313;SDS011;143;51.634;7.112;2023-02-28T06:05:48;5.83;;;3.50;;
313;SDS011;143;51.634;7.112;2023-02-28T06:08:15;7.05;;;3.80;;
313;SDS011;143;51.634;7.112;2023-02-28T06:10:41;6.20;;;3.87;;
313;SDS011;143;51.634;7.112;2023-02-28T06:13:06;10.70;;;4.07;;
313;SDS011;143;51.634;7.112;2023-02-28T06:15:32;6.87;;;4.33;;
313;SDS011;143;51.634;7.112;2023-02-28T06:17:58;10.70;;;4.87;;
313;SDS011;143;51.634;7.112;2023-02-28T06:20:24;8.70;;;4.30;;
313;SDS011;143;51.634;7.112;2023-02-28T06:22:54;7.70;;;5.15;;
313;SDS011;143;51.634;7.112;2023-02-28T06:25:26;13.55;;;4.13;;
313;SDS011;143;51.634;7.112;2023-02-28T06:27:53;5.90;;;4.15;;
313;SDS011;143;51.634;7.112;2023-02-28T06:30:19;8.15;;;4.13;;
313;SDS011;143;51.634;7.112;2023-02-28T06:32:50;10.07;;;4.28;;
313;SDS011;143;51.634;7.112;2023-02-28T06:35:15;6.20;;;4.50;;
313;SDS011;143;51.634;7.112;2023-02-28T06:37:42;6.70;;;4.50;;
313;SDS011;143;51.634;7.112;2023-02-28T06:40:09;8.48;;;4.10;;
313;SDS011;143;51.634;7.112;2023-02-28T06:42:35;10.88;;;4.40;;
313;SDS011;143;51.634;7.112;2023-02-28T06:45:00;5.77;;;4.30;;
313;SDS011;143;51.634;7.112;2023-02-28T06:47:28;10.85;;;4.85;;
313;SDS011;143;51.634;7.112;2023-02-28T06:49:55;10.15;;;5.43;;
313;SDS011;143;51.634;7.112;2023-02-28T06:52:21;6.80;;;4.73;;
313;SDS011;143;51.634;7.112;2023-02-28T06:54:47;7.60;;;4.80;;
313;SDS011;143;51.634;7.112;2023-02-28T06:57:24;7.07;;;5.07;;
313;SDS011;143;51.634;7.112;2023-02-28T06:59:52;6.78;;;4.70;;
313;SDS011;143;51.634;7.112;2023-02-28T07:02:17;12.70;;;5.60;;
313;SDS011;143;51.634;7.112;2023-02-28T07:04:43;8.10;;;5.00;;
313;SDS011;143;51.634;7.112;2023-02-28T07:07:09;11.80;;;5.97;;
313;SDS011;143;51.634;7.112;2023-02-28T07:09:35;6.40;;;4.80;;
313;SDS011;143;51.634;7.112;2023-02-28T07:12:01;8.53;;;5.00;;
313;SDS011;143;51.634;7.112;2023-02-28T07:14:26;6.60;;;4.93;;
313;SDS011;143;51.634;7.112;2023-02-28T07:16:52;7.07;;;4.50;;
313;SDS011;143;51.634;7.112;2023-02-28T07:19:18;7.73;;;4.60;;
313;SDS011;143;51.634;7.112;2023-02-28T07:21:43;7.30;;;4.60;;
313;SDS011;143;51.634;7.112;2023-02-28T07:24:10;12.27;;;5.18;;
313;SDS011;143;51.634;7.112;2023-02-28T07:26:35;12.50;;;5.47;;
313;SDS011;143;51.634;7.112;2023-02-28T07:29:01;5.50;;;4.10;;
313;SDS011;143;51.634;7.112;2023-02-28T07:31:27;14.00;;;5.00;;
313;SDS011;143;51.634;7.112;2023-02-28T07:33:53;9.07;;;4.70;;
313;SDS011;143;51.634;7.112;2023-02-28T07:36:18;8.37;;;4.17;;
313;SDS011;143;51.634;7.112;2023-02-28T07:38:45;6.43;;;4.30;;
313;SDS011;143;51.634;7.112;2023-02-28T07:41:14;6.95;;;4.18;;
313;SDS011;143;51.634;7.112;2023-02-28T07:43:43;7.82;;;4.32;;
313;SDS011;143;51.634;7.112;2023-02-28T07:46:10;11.63;;;4.63;;
313;SDS011;143;51.634;7.112;2023-02-28T07:48:37;12.35;;;4.70;;
313;SDS011;143;51.634;7.112;2023-02-28T07:51:03;7.23;;;4.00;;
313;SDS011;143;51.634;7.112;2023-02-28T07:53:29;7.53;;;3.97;;
313;SDS011;143;51.634;7.112;2023-02-28T07:55:58;5.67;;;3.40;;
313;SDS011;143;51.634;7.112;2023-02-28T07:58:26;5.25;;;3.45;;
313;SDS011;143;51.634;7.112;2023-02-28T08:00:52;5.78;;;3.80;;
313;SDS011;143;51.634;7.112;2023-02-28T08:03:19;4.32;;;3.30;;
313;SDS011;143;51.634;7.112;2023-02-28T08:05:45;6.28;;;3.38;;
313;SDS011;143;51.634;7.112;2023-02-28T08:08:11;5.13;;;3.47;;
313;SDS011;143;51.634;7.112;2023-02-28T08:10:37;4.40;;;3.10;;
313;SDS011;143;51.634;7.112;2023-02-28T08:13:03;7.40;;;3.90;;
313;SDS011;143;51.634;7.112;2023-02-28T08:15:29;4.60;;;3.20;;
313;SDS011;143;51.634;7.112;2023-02-28T08:17:54;11.13;;;3.40;;
313;SDS011;143;51.634;7.112;2023-02-28T08:20:23;6.18;;;3.35;;
313;SDS011;143;51.634;7.112;2023-02-28T08:22:50;3.88;;;2.55;;
313;SDS011;143;51.634;7.112;2023-02-28T08:25:16;6.00;;;3.40;;
313;SDS011;143;51.634;7.112;2023-02-28T08:27:42;5.85;;;2.85;;
313;SDS011;143;51.634;7.112;2023-02-28T08:30:10;5.90;;;2.50;;
313;SDS011;143;51.634;7.112;2023-02-28T08:32:36;5.40;;;2.80;;
313;SDS011;143;51.634;7.112;2023-02-28T08:35:02;3.90;;;2.40;;
313;SDS011;143;51.634;7.112;2023-02-28T08:37:28;3.40;;;2.65;;
313;SDS011;143;51.634;7.112;2023-02-28T08:39:54;5.43;;;2.50;;
313;SDS011;143;51.634;7.112;2023-02-28T08:42:20;3.63;;;2.60;;
313;SDS011;143;51.634;7.112;2023-02-28T08:44:45;5.27;;;2.80;;
313;SDS011;143;51.634;7.112;2023-02-28T08:47:11;3.70;;;2.45;;
313;SDS011;143;51.634;7.112;2023-02-28T08:49:37;4.37;;;2.50;;
313;SDS011;143;51.634;7.112;2023-02-28T08:52:03;4.03;;;2.40;;
313;SDS011;143;51.634;7.112;2023-02-28T08:54:29;6.10;;;2.20;;
313;SDS011;143;51.634;7.112;2023-02-28T08:56:56;5.30;;;2.50;;
313;SDS011;143;51.634;7.112;2023-02-28T08:59:22;3.00;;;2.43;;
313;SDS011;143;51.634;7.112;2023-02-28T09:01:48;4.23;;;2.37;;
313;SDS011;143;51.634;7.112;2023-02-28T09:04:13;7.77;;;2.37;;
313;SDS011;143;51.634;7.112;2023-02-28T09:06:39;3.40;;;2.13;;
313;SDS011;143;51.634;7.112;2023-02-28T09:09:05;3.87;;;2.60;;
313;SDS011;143;51.634;7.112;2023-02-28T09:11:32;4.50;;;2.40;;
313;SDS011;143;51.634;7.112;2023-02-28T09:13:59;4.87;;;2.43;;
313;SDS011;143;51.634;7.112;2023-02-28T09:16:25;3.17;;;2.30;;
313;SDS011;143;51.634;7.112;2023-02-28T09:18:51;3.17;;;2.17;;
313;SDS011;143;51.634;7.112;2023-02-28T09:21:17;5.13;;;1.67;;
313;SDS011;143;51.634;7.112;2023-02-28T09:23:44;2.43;;;1.77;;
313;SDS011;143;51.634;7.112;2023-02-28T09:26:15;3.27;;;1.97;;
313;SDS011;143;51.634;7.112;2023-02-28T09:28:46;8.80;;;2.70;;
313;SDS011;143;51.634;7.112;2023-02-28T09:31:15;3.37;;;1.90;;
313;SDS011;143;51.634;7.112;2023-02-28T09:33:45;2.80;;;1.60;;
313;SDS011;143;51.634;7.112;2023-02-28T09:36:14;2.10;;;1.40;;
313;SDS011;143;51.634;7.112;2023-02-28T09:38:40;2.37;;;1.73;;
313;SDS011;143;51.634;7.112;2023-02-28T09:41:14;3.77;;;1.90;;
313;SDS011;143;51.634;7.112;2023-02-28T09:43:44;3.93;;;1.93;;
313;SDS011;143;51.634;7.112;2023-02-28T09:48:47;5.63;;;2.03;;
313;SDS011;143;51.634;7.112;2023-02-28T09:54:08;3.93;;;1.97;;
313;SDS011;143;51.634;7.112;2023-02-28T09:56:43;4.73;;;1.53;;
313;SDS011;143;51.634;7.112;2023-02-28T09:59:23;2.37;;;1.60;;
313;SDS011;143;51.634;7.112;2023-02-28T10:05:05;2.80;;;1.90;;
313;SDS011;143;51.634;7.112;2023-02-28T10:10:20;4.60;;;2.00;;
313;SDS011;143;51.634;7.112;2023-02-28T10:12:51;2.33;;;1.90;;
313;SDS011;143;51.634;7.112;2023-02-28T10:15:20;4.33;;;2.43;;
313;SDS011;143;51.634;7.112;2023-02-28T10:17:51;4.80;;;2.07;;
313;SDS011;143;51.634;7.112;2023-02-28T10:20:23;5.00;;;2.37;;
313;SDS011;143;51.634;7.112;2023-02-28T10:22:58;3.27;;;2.33;;
313;SDS011;143;51.634;7.112;2023-02-28T10:25:34;5.17;;;2.23;;
313;SDS011;143;51.634;7.112;2023-02-28T10:28:07;4.20;;;2.07;;
313;SDS011;143;51.634;7.112;2023-02-28T10:30:41;3.60;;;2.50;;
313;SDS011;143;51.634;7.112;2023-02-28T10:35:48;5.93;;;2.07;;
313;SDS011;143;51.634;7.112;2023-02-28T10:38:16;2.70;;;2.07;;
313;SDS011;143;51.634;7.112;2023-02-28T10:40:44;4.70;;;2.03;;
313;SDS011;143;51.634;7.112;2023-02-28T10:45:38;3.63;;;2.50;;
313;SDS011;143;51.634;7.112;2023-02-28T10:48:10;3.70;;;2.30;;
313;SDS011;143;51.634;7.112;2023-02-28T10:50:56;3.00;;;2.17;;
313;SDS011;143;51.634;7.112;2023-02-28T10:55:59;4.80;;;2.37;;
313;SDS011;143;51.634;7.112;2023-02-28T11:01:24;3.20;;;2.23;;
313;SDS011;143;51.634;7.112;2023-02-28T11:03:51;7.53;;;2.13;;
313;SDS011;143;51.634;7.112;2023-02-28T11:06:21;3.40;;;2.00;;
313;SDS011;143;51.634;7.112;2023-02-28T11:08:54;2.13;;;2.00;;
313;SDS011;143;51.634;7.112;2023-02-28T11:11:22;4.17;;;2.10;;
313;SDS011;143;51.634;7.112;2023-02-28T11:13:52;2.90;;;1.57;;
313;SDS011;143;51.634;7.112;2023-02-28T11:16:21;3.63;;;1.47;;
313;SDS011;143;51.634;7.112;2023-02-28T11:18:56;2.83;;;2.13;;
313;SDS011;143;51.634;7.112;2023-02-28T11:23:56;3.50;;;1.47;;
313;SDS011;143;51.634;7.112;2023-02-28T11:26:44;5.70;;;2.00;;
313;SDS011;143;51.634;7.112;2023-02-28T11:29:12;2.33;;;1.40;;
313;SDS011;143;51.634;7.112;2023-02-28T11:31:41;5.27;;;1.77;;
313;SDS011;143;51.634;7.112;2023-02-28T11:34:26;2.23;;;1.73;;
313;SDS011;143;51.634;7.112;2023-02-28T11:36:53;6.90;;;1.90;;
313;SDS011;143;51.634;7.112;2023-02-28T11:39:21;3.10;;;1.70;;
313;SDS011;143;51.634;7.112;2023-02-28T11:53:00;3.73;;;1.70;;
313;SDS011;143;51.634;7.112;2023-02-28T11:55:37;1.87;;;1.73;;
313;SDS011;143;51.634;7.112;2023-02-28T12:16:37;4.37;;;2.00;;
313;SDS011;143;51.634;7.112;2023-02-28T12:19:16;4.43;;;2.17;;
313;SDS011;143;51.634;7.112;2023-02-28T12:27:42;4.73;;;2.30;;
313;SDS011;143;51.634;7.112;2023-02-28T12:33:12;6.77;;;1.93;;
313;SDS011;143;51.634;7.112;2023-02-28T12:35:49;5.53;;;2.17;;
313;SDS011;143;51.634;7.112;2023-02-28T12:40:53;2.87;;;1.70;;
313;SDS011;143;51.634;7.112;2023-02-28T12:43:48;2.90;;;1.70;;
313;SDS011;143;51.634;7.112;2023-02-28T12:49:00;5.23;;;2.00;;
313;SDS011;143;51.634;7.112;2023-02-28T12:51:33;5.03;;;2.07;;
313;SDS011;143;51.634;7.112;2023-02-28T12:54:09;4.03;;;2.13;;
313;SDS011;143;51.634;7.112;2023-02-28T12:56:54;2.67;;;1.70;;
313;SDS011;143;51.634;7.112;2023-02-28T13:05:00;3.30;;;1.90;;
313;SDS011;143;51.634;7.112;2023-02-28T13:10:45;2.37;;;1.60;;
313;SDS011;143;51.634;7.112;2023-02-28T13:13:18;2.10;;;1.77;;
313;SDS011;143;51.634;7.112;2023-02-28T13:16:06;4.40;;;2.40;;
313;SDS011;143;51.634;7.112;2023-02-28T13:21:04;2.83;;;1.50;;
313;SDS011;143;51.634;7.112;2023-02-28T13:23:37;6.10;;;2.53;;
313;SDS011;143;51.634;7.112;2023-02-28T13:26:16;2.80;;;1.77;;
313;SDS011;143;51.634;7.112;2023-02-28T13:31:13;2.37;;;1.83;;
313;SDS011;143;51.634;7.112;2023-02-28T13:46:28;8.53;;;1.80;;
313;SDS011;143;51.634;7.112;2023-02-28T13:48:54;3.20;;;1.50;;
313;SDS011;143;51.634;7.112;2023-02-28T13:51:40;2.53;;;2.00;;
313;SDS011;143;51.634;7.112;2023-02-28T14:02:56;10.33;;;1.80;;
313;SDS011;143;51.634;7.112;2023-02-28T14:05:32;2.80;;;1.63;;
313;SDS011;143;51.634;7.112;2023-02-28T14:08:04;2.47;;;1.70;;
313;SDS011;143;51.634;7.112;2023-02-28T14:10:49;4.10;;;1.70;;
313;SDS011;143;51.634;7.112;2023-02-28T14:16:16;3.27;;;2.07;;
313;SDS011;143;51.634;7.112;2023-02-28T14:19:00;3.37;;;2.07;;
313;SDS011;143;51.634;7.112;2023-02-28T14:21:34;5.20;;;2.93;;
313;SDS011;143;51.634;7.112;2023-02-28T14:27:17;4.20;;;2.57;;
313;SDS011;143;51.634;7.112;2023-02-28T14:33:04;3.20;;;2.13;;
313;SDS011;143;51.634;7.112;2023-02-28T14:38:30;3.77;;;2.50;;
313;SDS011;143;51.634;7.112;2023-02-28T14:41:02;3.57;;;2.40;;
313;SDS011;143;51.634;7.112;2023-02-28T14:43:31;4.40;;;2.00;;
313;SDS011;143;51.634;7.112;2023-02-28T14:45:58;2.80;;;2.20;;
313;SDS011;143;51.634;7.112;2023-02-28T14:48:29;2.40;;;2.10;;
313;SDS011;143;51.634;7.112;2023-02-28T14:50:58;3.80;;;1.83;;
313;SDS011;143;51.634;7.112;2023-02-28T14:53:27;4.00;;;2.20;;
313;SDS011;143;51.634;7.112;2023-02-28T14:55:55;4.93;;;2.73;;
313;SDS011;143;51.634;7.112;2023-02-28T15:00:53;6.10;;;2.20;;
313;SDS011;143;51.634;7.112;2023-02-28T15:05:55;4.80;;;2.57;;
313;SDS011;143;51.634;7.112;2023-02-28T15:08:26;3.07;;;2.13;;
313;SDS011;143;51.634;7.112;2023-02-28T15:13:46;4.20;;;2.03;;
313;SDS011;143;51.634;7.112;2023-02-28T15:21:21;3.07;;;2.30;;
313;SDS011;143;51.634;7.112;2023-02-28T15:23:51;4.03;;;2.70;;
313;SDS011;143;51.634;7.112;2023-02-28T15:26:24;3.00;;;2.23;;
313;SDS011;143;51.634;7.112;2023-02-28T15:29:00;4.50;;;2.50;;
313;SDS011;143;51.634;7.112;2023-02-28T15:31:32;4.10;;;2.60;;
313;SDS011;143;51.634;7.112;2023-02-28T15:34:04;4.67;;;2.20;;
313;SDS011;143;51.634;7.112;2023-02-28T15:36:32;2.97;;;2.20;;
313;SDS011;143;51.634;7.112;2023-02-28T15:39:02;4.17;;;2.40;;
313;SDS011;143;51.634;7.112;2023-02-28T15:41:42;3.57;;;2.47;;
313;SDS011;143;51.634;7.112;2023-02-28T15:44:25;3.73;;;2.53;;
313;SDS011;143;51.634;7.112;2023-02-28T15:46:58;4.90;;;3.20;;
313;SDS011;143;51.634;7.112;2023-02-28T15:49:24;3.63;;;2.63;;
313;SDS011;143;51.634;7.112;2023-02-28T15:51:51;3.40;;;2.40;;
313;SDS011;143;51.634;7.112;2023-02-28T15:54:27;4.53;;;2.10;;
313;SDS011;143;51.634;7.112;2023-02-28T15:56:55;4.03;;;2.63;;
313;SDS011;143;51.634;7.112;2023-02-28T15:59:23;8.50;;;3.60;;
313;SDS011;143;51.634;7.112;2023-02-28T16:04:59;5.57;;;2.83;;
313;SDS011;143;51.634;7.112;2023-02-28T16:07:31;3.23;;;2.60;;
313;SDS011;143;51.634;7.112;2023-02-28T16:09:57;5.67;;;2.80;;
313;SDS011;143;51.634;7.112;2023-02-28T16:12:25;11.60;;;3.30;;
313;SDS011;143;51.634;7.112;2023-02-28T16:14:53;5.23;;;3.13;;
313;SDS011;143;51.634;7.112;2023-02-28T16:17:22;4.67;;;2.70;;
313;SDS011;143;51.634;7.112;2023-02-28T16:19:51;8.80;;;2.80;;
313;SDS011;143;51.634;7.112;2023-02-28T16:22:17;4.00;;;2.40;;
313;SDS011;143;51.634;7.112;2023-02-28T16:24:43;5.60;;;2.93;;
313;SDS011;143;51.634;7.112;2023-02-28T16:27:24;6.43;;;3.07;;
313;SDS011;143;51.634;7.112;2023-02-28T16:29:56;4.97;;;2.70;;
313;SDS011;143;51.634;7.112;2023-02-28T16:32:22;5.47;;;3.00;;
313;SDS011;143;51.634;7.112;2023-02-28T16:34:47;3.40;;;2.57;;
313;SDS011;143;51.634;7.112;2023-02-28T16:37:15;4.50;;;2.80;;
313;SDS011;143;51.634;7.112;2023-02-28T16:39:42;4.13;;;2.70;;
313;SDS011;143;51.634;7.112;2023-02-28T16:42:30;4.87;;;2.53;;
313;SDS011;143;51.634;7.112;2023-02-28T16:44:55;5.97;;;3.30;;
313;SDS011;143;51.634;7.112;2023-02-28T16:47:22;6.60;;;2.60;;
313;SDS011;143;51.634;7.112;2023-02-28T16:49:48;5.13;;;3.03;;
313;SDS011;143;51.634;7.112;2023-02-28T16:52:14;5.50;;;2.43;;
313;SDS011;143;51.634;7.112;2023-02-28T16:54:40;4.47;;;2.70;;
313;SDS011;143;51.634;7.112;2023-02-28T16:57:25;3.80;;;2.80;;
313;SDS011;143;51.634;7.112;2023-02-28T16:59:51;4.37;;;2.60;;
313;SDS011;143;51.634;7.112;2023-02-28T17:02:17;4.10;;;2.23;;
313;SDS011;143;51.634;7.112;2023-02-28T17:04:45;4.13;;;2.80;;
313;SDS011;143;51.634;7.112;2023-02-28T17:07:12;4.63;;;2.77;;
313;SDS011;143;51.634;7.112;2023-02-28T17:09:43;5.53;;;2.93;;
313;SDS011;143;51.634;7.112;2023-02-28T17:12:09;4.27;;;2.63;;
313;SDS011;143;51.634;7.112;2023-02-28T17:14:36;5.73;;;3.20;;
313;SDS011;143;51.634;7.112;2023-02-28T17:17:03;5.77;;;2.67;;
313;SDS011;143;51.634;7.112;2023-02-28T17:19:30;4.80;;;2.97;;
313;SDS011;143;51.634;7.112;2023-02-28T17:21:55;8.23;;;2.73;;
313;SDS011;143;51.634;7.112;2023-02-28T17:24:21;5.80;;;2.97;;
313;SDS011;143;51.634;7.112;2023-02-28T17:26:47;6.37;;;2.90;;
313;SDS011;143;51.634;7.112;2023-02-28T17:29:16;6.20;;;3.70;;
313;SDS011;143;51.634;7.112;2023-02-28T17:31:44;7.17;;;3.40;;
313;SDS011;143;51.634;7.112;2023-02-28T17:34:10;3.97;;;2.93;;
313;SDS011;143;51.634;7.112;2023-02-28T17:36:36;8.80;;;3.10;;
313;SDS011;143;51.634;7.112;2023-02-28T17:39:03;5.80;;;3.50;;
313;SDS011;143;51.634;7.112;2023-02-28T17:41:33;5.47;;;3.67;;
313;SDS011;143;51.634;7.112;2023-02-28T17:43:59;4.00;;;3.20;;
313;SDS011;143;51.634;7.112;2023-02-28T17:46:25;4.70;;;3.27;;
313;SDS011;143;51.634;7.112;2023-02-28T17:48:51;12.27;;;4.17;;
313;SDS011;143;51.634;7.112;2023-02-28T17:51:19;6.80;;;4.40;;
313;SDS011;143;51.634;7.112;2023-02-28T17:53:46;8.90;;;5.67;;
313;SDS011;143;51.634;7.112;2023-02-28T17:56:15;11.83;;;5.80;;
313;SDS011;143;51.634;7.112;2023-02-28T17:58:47;14.65;;;7.53;;
313;SDS011;143;51.634;7.112;2023-02-28T18:01:14;11.50;;;6.77;;
313;SDS011;143;51.634;7.112;2023-02-28T18:03:40;10.57;;;5.90;;
313;SDS011;143;51.634;7.112;2023-02-28T18:06:06;8.40;;;5.13;;
313;SDS011;143;51.634;7.112;2023-02-28T18:08:39;6.28;;;3.80;;
313;SDS011;143;51.634;7.112;2023-02-28T18:11:06;6.00;;;3.50;;
313;SDS011;143;51.634;7.112;2023-02-28T18:13:42;4.90;;;3.50;;
313;SDS011;143;51.634;7.112;2023-02-28T18:16:10;5.90;;;3.40;;
313;SDS011;143;51.634;7.112;2023-02-28T18:18:35;8.88;;;4.05;;
313;SDS011;143;51.634;7.112;2023-02-28T18:21:06;3.53;;;3.10;;
313;SDS011;143;51.634;7.112;2023-02-28T18:23:33;5.28;;;2.80;;
313;SDS011;143;51.634;7.112;2023-02-28T18:25:59;7.03;;;3.85;;
313;SDS011;143;51.634;7.112;2023-02-28T18:28:25;4.30;;;3.10;;
313;SDS011;143;51.634;7.112;2023-02-28T18:30:51;5.78;;;3.08;;
313;SDS011;143;51.634;7.112;2023-02-28T18:33:17;5.23;;;3.53;;
313;SDS011;143;51.634;7.112;2023-02-28T18:35:44;6.85;;;3.65;;
313;SDS011;143;51.634;7.112;2023-02-28T18:38:12;7.23;;;4.17;;
313;SDS011;143;51.634;7.112;2023-02-28T18:40:40;6.22;;;4.43;;
313;SDS011;143;51.634;7.112;2023-02-28T18:43:07;9.85;;;4.57;;